Time;durP1;ratioP1;P1;durP2;ratioP2;P2;SDS_P1;SDS_P2;PMS_P1;PMS_P2;Temp;Humidity;BMP_temperature;BMP_pressure;BME280_temperature;BME280_humidity;BME280_pressure;Samples;Min_cycle;Max_cycle;Signal;HPM_P1;HPM_P2
2022/03/17 00:01:13;;;;;;;22.95;18.80;;;11.10;92.70;;;;;;5033197;28;20049;-82
2022/03/17 00:03:38;;;;;;;22.58;17.83;;;11.10;92.80;;;;;;5032954;28;20045;-82
2022/03/17 00:06:05;;;;;;;20.63;17.65;;;11.10;92.80;;;;;;5033382;28;20049;-82
2022/03/17 00:08:31;;;;;;;22.63;18.30;;;11.10;92.90;;;;;;5037065;28;20050;-77
2022/03/17 00:10:57;;;;;;;21.67;18.15;;;11.10;93.10;;;;;;5015904;28;20105;-77
2022/03/17 00:13:23;;;;;;;20.05;17.17;;;11.10;93.10;;;;;;5031605;28;20048;-78
2022/03/17 00:15:48;;;;;;;21.98;18.33;;;11.10;93.30;;;;;;5048036;28;20045;-81
2022/03/17 00:18:14;;;;;;;24.33;18.20;;;11.00;93.50;;;;;;5033944;28;20049;-81
2022/03/17 00:20:40;;;;;;;22.38;19.38;;;11.00;93.70;;;;;;5015109;28;20063;-81
2022/03/17 00:23:06;;;;;;;24.58;18.52;;;11.10;94.00;;;;;;4999314;28;20473;-82
2022/03/17 00:25:32;;;;;;;22.88;18.50;;;11.00;94.20;;;;;;5015003;28;20132;-82
2022/03/17 00:27:58;;;;;;;24.00;19.42;;;11.00;94.50;;;;;;5032930;28;20053;-82
2022/03/17 00:30:24;;;;;;;24.42;19.58;;;11.00;94.60;;;;;;5032317;28;20509;-83
2022/03/17 00:32:50;;;;;;;23.17;19.02;;;11.00;94.60;;;;;;5014913;28;20051;-81
2022/03/17 00:37:59;;;;;;;23.95;18.98;;;11.00;94.90;;;;;;5018048;28;20442;-82
2022/03/17 00:40:25;;;;;;;22.45;19.70;;;10.90;95.00;;;;;;5014885;28;20088;-83
2022/03/17 00:42:51;;;;;;;23.95;18.70;;;10.90;95.10;;;;;;5015056;28;20057;-82
2022/03/17 00:45:17;;;;;;;24.08;19.60;;;10.90;95.10;;;;;;5014919;28;20048;-80
2022/03/17 00:47:43;;;;;;;27.15;20.60;;;10.90;95.40;;;;;;5032202;28;20041;-81
2022/03/17 00:50:10;;;;;;;23.20;19.35;;;10.90;95.40;;;;;;5032659;28;20045;-81
2022/03/17 00:52:35;;;;;;;23.27;18.95;;;10.90;95.50;;;;;;5014860;28;20050;-82
2022/03/17 00:55:01;;;;;;;25.45;20.00;;;10.90;95.60;;;;;;5032655;28;20103;-82
2022/03/17 00:57:27;;;;;;;25.98;20.25;;;10.90;95.70;;;;;;4998852;28;20496;-81
2022/03/17 00:59:53;;;;;;;24.65;20.63;;;10.90;95.70;;;;;;5032493;28;20545;-82
2022/03/17 01:02:18;;;;;;;25.17;20.50;;;10.90;95.80;;;;;;5015068;28;20469;-82
2022/03/17 01:04:44;;;;;;;25.05;20.17;;;10.80;95.70;;;;;;5032314;28;20042;-81
2022/03/17 01:07:09;;;;;;;25.40;20.33;;;10.90;95.80;;;;;;5014700;28;20504;-81
2022/03/17 01:09:35;;;;;;;25.45;20.13;;;10.90;95.80;;;;;;5015785;28;20048;-82
2022/03/17 01:12:01;;;;;;;25.23;20.75;;;10.90;95.80;;;;;;5036380;28;20046;-81
2022/03/17 01:14:27;;;;;;;24.58;20.55;;;10.90;95.90;;;;;;5018974;28;20049;-81
2022/03/17 01:16:53;;;;;;;25.10;19.73;;;10.90;95.90;;;;;;5035930;28;20076;-81
2022/03/17 01:19:21;;;;;;;25.88;20.55;;;10.90;96.00;;;;;;5036324;28;20041;-82
2022/03/17 01:21:48;;;;;;;25.60;20.60;;;10.90;96.10;;;;;;5018560;28;20052;-81
2022/03/17 01:24:14;;;;;;;22.98;20.08;;;10.80;96.20;;;;;;5035047;28;20049;-80
2022/03/17 01:26:40;;;;;;;26.30;21.15;;;10.80;96.20;;;;;;5018242;28;20057;-81
2022/03/17 01:29:05;;;;;;;25.67;20.58;;;10.80;96.30;;;;;;5002419;28;20389;-81
2022/03/17 01:31:31;;;;;;;25.38;21.00;;;10.80;96.50;;;;;;5036148;28;20111;-81
2022/03/17 01:33:58;;;;;;;24.35;21.05;;;10.70;96.60;;;;;;5036067;28;20100;-82
2022/03/17 01:36:24;;;;;;;22.92;20.38;;;10.70;96.60;;;;;;5035951;28;20060;-82
2022/03/17 01:38:49;;;;;;;24.23;20.48;;;10.80;96.70;;;;;;5035693;28;20474;-82
2022/03/17 01:41:15;;;;;;;22.55;19.27;;;10.70;96.70;;;;;;5035637;28;20537;-81
2022/03/17 01:43:41;;;;;;;27.05;22.35;;;10.70;96.70;;;;;;5017893;28;20164;-82
2022/03/17 01:46:07;;;;;;;24.20;21.60;;;10.70;96.80;;;;;;5035874;28;20132;-82
2022/03/17 01:48:33;;;;;;;26.15;20.50;;;10.70;96.90;;;;;;5018332;28;20469;-81
2022/03/17 01:50:58;;;;;;;26.83;21.35;;;10.70;97.00;;;;;;5018017;28;20063;-80
2022/03/17 01:53:24;;;;;;;24.15;21.55;;;10.70;97.20;;;;;;5018303;28;20041;-81
2022/03/17 01:55:50;;;;;;;25.83;20.52;;;10.70;97.30;;;;;;5035605;28;20048;-80
2022/03/17 01:58:16;;;;;;;24.25;21.63;;;10.70;97.40;;;;;;5039644;28;20077;-77
2022/03/17 02:00:42;;;;;;;23.88;20.67;;;10.70;97.40;;;;;;5050759;28;20092;-77
2022/03/17 02:03:08;;;;;;;28.05;22.58;;;10.70;97.70;;;;;;5035009;28;20053;-77
2022/03/17 02:05:34;;;;;;;24.35;20.85;;;10.70;97.80;;;;;;5050841;28;20101;-76
2022/03/17 02:08:01;;;;;;;27.35;21.98;;;10.70;98.30;;;;;;5045096;28;20080;-80
2022/03/17 02:10:27;;;;;;;25.33;21.70;;;10.70;98.90;;;;;;5018128;28;20121;-81
2022/03/17 02:13:10;;;;;;;26.73;21.73;;;10.70;99.50;;;;;;5034868;28;20163;-82
2022/03/17 02:15:36;;;;;;;25.13;22.08;;;10.70;99.90;;;;;;5017777;28;20481;-81
2022/03/17 02:18:06;;;;;;;28.38;22.20;;;10.60;99.90;;;;;;5034791;28;20187;-82
2022/03/17 02:20:32;;;;;;;24.17;21.60;;;10.60;99.90;;;;;;5017793;28;20393;-81
2022/03/17 02:25:52;;;;;;;24.30;21.30;;;10.60;99.90;;;;;;5019904;28;20057;-82
2022/03/17 02:28:18;;;;;;;25.15;22.30;;;10.50;99.90;;;;;;5017845;28;20056;-81
2022/03/17 02:30:45;;;;;;;26.75;21.90;;;10.50;99.90;;;;;;5017021;28;20041;-81
2022/03/17 02:33:11;;;;;;;25.88;22.15;;;10.50;99.90;;;;;;5017530;28;20490;-82
2022/03/17 02:35:39;;;;;;;28.33;23.27;;;10.50;99.90;;;;;;5034867;28;20046;-81
2022/03/17 02:38:05;;;;;;;26.08;23.17;;;10.50;99.90;;;;;;5034409;28;20052;-82
2022/03/17 02:40:31;;;;;;;25.45;21.98;;;10.60;99.90;;;;;;5017244;28;20037;-82
2022/03/17 02:42:57;;;;;;;26.55;22.60;;;10.50;99.90;;;;;;5016315;28;20061;-82
2022/03/17 02:45:23;;;;;;;26.73;22.83;;;10.50;99.90;;;;;;5000748;28;20486;-81
2022/03/17 02:47:51;;;;;;;27.23;22.90;;;10.60;99.90;;;;;;5016781;28;20498;-81
2022/03/17 02:50:17;;;;;;;25.63;22.67;;;10.60;99.90;;;;;;5034740;28;20081;-81
2022/03/17 02:52:43;;;;;;;26.92;22.63;;;10.60;99.90;;;;;;5016696;28;20049;-82
2022/03/17 02:55:11;;;;;;;27.35;22.27;;;10.60;99.90;;;;;;5034684;28;20041;-81
2022/03/17 02:57:38;;;;;;;26.15;21.67;;;10.60;99.90;;;;;;5017115;28;20050;-82
2022/03/17 03:00:05;;;;;;;26.02;22.95;;;10.60;99.90;;;;;;5016180;28;20237;-81
2022/03/17 03:02:31;;;;;;;25.58;22.88;;;10.60;99.90;;;;;;5016794;28;20049;-82
2022/03/17 03:04:57;;;;;;;24.77;22.15;;;10.60;99.90;;;;;;5016652;28;20534;-82
2022/03/17 03:07:23;;;;;;;26.23;22.48;;;10.60;99.90;;;;;;5034279;28;20049;-82
2022/03/17 03:09:48;;;;;;;26.08;23.20;;;10.60;99.90;;;;;;5033926;28;20049;-82
2022/03/17 03:12:14;;;;;;;28.30;24.13;;;10.60;99.90;;;;;;5034143;28;20038;-81
2022/03/17 03:14:40;;;;;;;25.58;22.88;;;10.60;99.90;;;;;;5034476;28;20143;-81
2022/03/17 03:17:06;;;;;;;29.85;23.13;;;10.60;99.90;;;;;;5016397;28;20273;-82
2022/03/17 03:19:32;;;;;;;26.58;23.77;;;10.60;99.90;;;;;;5016558;28;20130;-81
2022/03/17 03:21:57;;;;;;;25.85;22.98;;;10.70;99.90;;;;;;5033572;28;20092;-81
2022/03/17 03:24:23;;;;;;;28.23;23.73;;;10.70;99.90;;;;;;5016250;28;20045;-82
2022/03/17 03:26:51;;;;;;;25.90;23.20;;;10.70;99.90;;;;;;4999745;28;20042;-82
2022/03/17 03:29:21;;;;;;;27.15;23.00;;;10.70;99.90;;;;;;5033739;28;20548;-82
2022/03/17 03:31:54;;;;;;;26.55;23.70;;;10.70;99.90;;;;;;5016536;28;20053;-81
2022/03/17 03:34:20;;;;;;;27.08;24.20;;;10.70;99.90;;;;;;5032982;28;20092;-82
2022/03/17 03:39:30;;;;;;;26.25;23.45;;;10.70;99.90;;;;;;5018777;28;20049;-81
2022/03/17 03:41:56;;;;;;;27.80;24.38;;;10.70;99.90;;;;;;5015754;28;20052;-82
2022/03/17 03:44:22;;;;;;;27.20;24.40;;;10.70;99.90;;;;;;5028618;28;20060;-76
2022/03/17 03:46:47;;;;;;;26.45;23.75;;;10.70;99.90;;;;;;5032634;28;20042;-76
2022/03/17 03:49:13;;;;;;;27.48;24.35;;;10.70;99.90;;;;;;5033089;28;20038;-78
2022/03/17 03:51:39;;;;;;;28.30;25.42;;;10.80;99.90;;;;;;5046316;28;20042;-81
2022/03/17 03:54:13;;;;;;;29.67;25.73;;;10.70;99.90;;;;;;5033131;28;20046;-82
2022/03/17 03:56:43;;;;;;;28.95;25.92;;;10.70;99.90;;;;;;5033542;28;20046;-82
2022/03/17 03:59:09;;;;;;;31.83;27.98;;;10.70;99.90;;;;;;5015819;28;20140;-82
2022/03/17 04:01:34;;;;;;;31.95;26.42;;;10.60;99.90;;;;;;5017206;28;20138;-82
2022/03/17 04:04:01;;;;;;;31.73;28.10;;;10.60;99.90;;;;;;5035331;28;20054;-82
2022/03/17 04:06:27;;;;;;;32.72;29.23;;;10.50;99.90;;;;;;5036917;28;20053;-82
2022/03/17 04:08:53;;;;;;;31.83;28.45;;;10.40;99.90;;;;;;5019663;28;20045;-83
2022/03/17 04:11:19;;;;;;;34.42;29.58;;;10.40;99.90;;;;;;5036527;28;20052;-81
2022/03/17 04:13:44;;;;;;;33.95;30.33;;;10.30;99.90;;;;;;5034019;28;20509;-81
2022/03/17 04:16:10;;;;;;;36.35;30.75;;;10.30;99.90;;;;;;5033992;28;20050;-83
2022/03/17 04:18:35;;;;;;;39.10;31.75;;;10.20;99.90;;;;;;5016282;28;20056;-83
2022/03/17 04:21:01;;;;;;;37.17;31.83;;;10.20;99.90;;;;;;4999458;28;20105;-83
2022/03/17 04:23:27;;;;;;;38.13;32.80;;;10.20;99.90;;;;;;5035027;28;20124;-82
2022/03/17 04:25:52;;;;;;;39.22;32.97;;;10.20;99.90;;;;;;5034851;28;20080;-82
2022/03/17 04:28:18;;;;;;;38.70;32.75;;;10.20;99.90;;;;;;5034407;28;20073;-83
2022/03/17 04:30:45;;;;;;;41.30;34.40;;;10.10;99.90;;;;;;5034031;28;20041;-82
2022/03/17 04:33:10;;;;;;;39.47;34.20;;;10.00;99.90;;;;;;5016101;28;20470;-83
2022/03/17 04:35:36;;;;;;;39.15;33.97;;;10.10;99.90;;;;;;5016214;28;20052;-83
2022/03/17 04:38:01;;;;;;;41.55;34.60;;;10.10;99.90;;;;;;5032833;28;20053;-83
2022/03/17 04:40:27;;;;;;;42.65;35.80;;;10.00;99.90;;;;;;5015704;28;20085;-83
2022/03/17 04:42:53;;;;;;;42.47;36.50;;;10.00;99.90;;;;;;5033493;28;20053;-82
2022/03/17 04:45:19;;;;;;;44.30;37.17;;;10.00;99.90;;;;;;5037225;28;20052;-82
2022/03/17 04:47:45;;;;;;;46.88;37.47;;;10.00;99.90;;;;;;5038593;28;20037;-83
2022/03/17 04:50:10;;;;;;;48.15;37.85;;;9.90;99.90;;;;;;5039298;28;20045;-82
2022/03/17 04:55:21;;;;;;;47.75;37.95;;;9.90;99.90;;;;;;5039089;28;20053;-83
2022/03/17 04:57:47;;;;;;;45.55;36.83;;;9.90;99.90;;;;;;5039280;28;20079;-83
2022/03/17 05:00:13;;;;;;;24.55;20.10;;;9.80;99.90;;;;;;5021279;28;20049;-83
2022/03/17 05:02:39;;;;;;;17.15;14.50;;;9.80;99.90;;;;;;5021431;28;20533;-83
2022/03/17 05:05:05;;;;;;;14.43;11.73;;;9.70;99.90;;;;;;5021083;28;20129;-83
2022/03/17 05:07:30;;;;;;;9.68;8.68;;;9.70;99.90;;;;;;5039408;28;20057;-82
2022/03/17 05:09:56;;;;;;;9.30;7.80;;;9.60;99.90;;;;;;5039288;28;20087;-82
2022/03/17 05:12:22;;;;;;;8.57;6.72;;;9.50;99.90;;;;;;5039052;28;20060;-82
2022/03/17 05:14:47;;;;;;;7.38;6.68;;;9.40;99.90;;;;;;5041869;28;20041;-82
2022/03/17 05:17:13;;;;;;;7.20;6.50;;;9.30;99.90;;;;;;5042357;28;20081;-82
2022/03/17 05:19:38;;;;;;;9.38;6.60;;;9.30;99.90;;;;;;5049770;28;20362;-81
2022/03/17 05:22:04;;;;;;;7.75;6.90;;;9.20;99.90;;;;;;5042716;28;20095;-83
2022/03/17 05:24:30;;;;;;;7.47;6.78;;;9.10;99.90;;;;;;5046978;28;20025;-81
2022/03/17 05:26:57;;;;;;;8.52;6.68;;;9.00;99.90;;;;;;5046869;28;20060;-77
2022/03/17 05:29:23;;;;;;;7.47;6.30;;;9.00;99.90;;;;;;5062285;28;20053;-81
2022/03/17 05:31:49;;;;;;;6.63;5.97;;;9.00;99.90;;;;;;5031326;28;20069;-82
2022/03/17 05:34:14;;;;;;;6.85;6.13;;;8.90;99.90;;;;;;5021061;28;20045;-82
2022/03/17 05:36:40;;;;;;;8.45;6.78;;;8.90;99.90;;;;;;5039059;28;20083;-82
2022/03/17 05:39:06;;;;;;;7.97;7.00;;;8.90;99.90;;;;;;5038694;28;20394;-82
2022/03/17 05:41:31;;;;;;;13.05;7.47;;;8.80;99.90;;;;;;5038454;28;20528;-81
2022/03/17 05:43:57;;;;;;;12.23;7.90;;;8.80;99.90;;;;;;5039419;28;20064;-81
2022/03/17 05:46:25;;;;;;;14.10;9.57;;;8.80;99.90;;;;;;5021166;28;20076;-82
2022/03/17 05:48:51;;;;;;;11.57;8.80;;;8.70;99.90;;;;;;5038876;28;20056;-84
2022/03/17 05:51:16;;;;;;;16.27;9.63;;;8.70;99.90;;;;;;5020944;28;20050;-81
2022/03/17 05:53:42;;;;;;;16.30;9.85;;;8.70;99.90;;;;;;5038771;28;20050;-83
2022/03/17 05:56:08;;;;;;;21.17;11.38;;;8.60;99.90;;;;;;5018479;28;20034;-83
2022/03/17 05:58:33;;;;;;;18.85;10.50;;;8.60;99.90;;;;;;5035775;28;20083;-81
2022/03/17 06:00:59;;;;;;;22.67;11.50;;;8.60;99.90;;;;;;5017824;28;20045;-82
2022/03/17 06:03:25;;;;;;;15.40;10.13;;;8.60;99.90;;;;;;5035218;28;20379;-81
2022/03/17 06:05:51;;;;;;;20.58;10.50;;;8.70;99.90;;;;;;5017879;28;20446;-81
2022/03/17 06:08:16;;;;;;;17.33;9.52;;;8.60;99.90;;;;;;5017447;28;20058;-81
2022/03/17 06:10:42;;;;;;;15.55;8.10;;;8.60;99.90;;;;;;5035313;28;20536;-80
2022/03/17 06:13:08;;;;;;;16.02;7.90;;;8.60;99.90;;;;;;5035150;28;20045;-82
2022/03/17 06:15:34;;;;;;;18.23;7.00;;;8.50;99.90;;;;;;5017426;28;20050;-83
2022/03/17 06:18:00;;;;;;;14.40;6.90;;;8.60;99.90;;;;;;5017731;28;20045;-82
2022/03/17 06:20:27;;;;;;;13.07;6.88;;;8.40;99.90;;;;;;5017519;28;20048;-82
2022/03/17 06:22:54;;;;;;;19.88;7.18;;;8.50;99.90;;;;;;5018102;28;20121;-83
2022/03/17 06:25:22;;;;;;;16.70;6.40;;;8.50;99.90;;;;;;5034748;28;20124;-82
2022/03/17 06:27:48;;;;;;;16.77;6.28;;;8.40;99.90;;;;;;5017295;28;20486;-82
2022/03/17 06:30:18;;;;;;;14.18;6.00;;;8.50;99.90;;;;;;5017071;28;20043;-82
2022/03/17 06:32:44;;;;;;;15.45;5.00;;;8.50;99.90;;;;;;5017553;28;20053;-82
2022/03/17 06:35:17;;;;;;;18.38;5.80;;;8.50;99.90;;;;;;5017460;28;20045;-82
2022/03/17 06:37:43;;;;;;;14.48;5.18;;;8.50;99.90;;;;;;5017483;28;20139;-82
2022/03/17 06:40:09;;;;;;;16.58;4.88;;;8.40;99.90;;;;;;5017230;28;20046;-82
2022/03/17 06:42:35;;;;;;;12.55;4.63;;;8.40;99.90;;;;;;5034314;28;20132;-82
2022/03/17 06:45:01;;;;;;;11.20;4.38;;;8.40;99.90;;;;;;5034934;28;20133;-82
2022/03/17 06:47:26;;;;;;;14.30;4.15;;;8.40;99.90;;;;;;5034364;28;20510;-82
2022/03/17 06:49:52;;;;;;;15.30;3.35;;;8.40;99.90;;;;;;5034690;28;20088;-82
2022/03/17 06:52:18;;;;;;;10.05;3.17;;;8.30;99.90;;;;;;5016790;28;20080;-82
2022/03/17 06:54:44;;;;;;;11.02;2.67;;;8.20;99.90;;;;;;5017120;28;20556;-82
2022/03/17 06:57:10;;;;;;;9.15;2.40;;;8.30;99.90;;;;;;5017051;28;20128;-82
2022/03/17 06:59:36;;;;;;;8.02;2.05;;;8.30;99.90;;;;;;5035602;28;20142;-82
2022/03/17 07:02:01;;;;;;;10.38;2.45;;;8.30;99.90;;;;;;5019669;28;20080;-82
2022/03/17 07:04:27;;;;;;;13.52;3.20;;;8.30;99.90;;;;;;5017809;28;20061;-83
2022/03/17 07:06:53;;;;;;;8.32;2.63;;;8.30;99.90;;;;;;5032468;28;20034;-77
2022/03/17 07:09:18;;;;;;;9.65;2.42;;;8.30;99.90;;;;;;5057743;28;20041;-80
2022/03/17 07:11:44;;;;;;;11.82;2.42;;;8.30;99.90;;;;;;5041327;28;20121;-77
2022/03/17 07:14:10;;;;;;;9.63;2.10;;;8.30;99.90;;;;;;5023903;28;20056;-81
2022/03/17 07:16:36;;;;;;;11.10;2.47;;;8.30;99.90;;;;;;5018349;28;20041;-82
2022/03/17 07:19:02;;;;;;;12.35;2.70;;;8.30;99.90;;;;;;5000543;28;20400;-81
2022/03/17 07:21:28;;;;;;;11.48;2.35;;;8.30;99.90;;;;;;5033799;28;20517;-82
2022/03/17 07:23:54;;;;;;;10.63;1.90;;;8.30;99.90;;;;;;5034157;28;20081;-81
2022/03/17 07:26:20;;;;;;;9.50;2.00;;;8.30;99.90;;;;;;5033506;28;20045;-82
2022/03/17 07:28:45;;;;;;;8.65;2.33;;;8.40;99.90;;;;;;5033982;28;20103;-82
2022/03/17 07:31:11;;;;;;;13.38;2.67;;;8.40;99.90;;;;;;5016329;28;20049;-82
2022/03/17 07:33:37;;;;;;;8.75;1.80;;;8.30;99.90;;;;;;5016252;28;20478;-82
2022/03/17 07:36:06;;;;;;;9.57;1.92;;;8.40;99.90;;;;;;5016303;28;20041;-81
2022/03/17 07:38:32;;;;;;;12.40;1.70;;;8.40;99.90;;;;;;5015827;28;20100;-81
2022/03/17 07:40:57;;;;;;;9.50;1.50;;;8.20;99.90;;;;;;5015946;28;20524;-81
2022/03/17 07:43:25;;;;;;;11.10;2.25;;;8.30;99.90;;;;;;5033474;28;20100;-81
2022/03/17 07:45:53;;;;;;;11.98;1.83;;;8.30;99.90;;;;;;5033812;28;20058;-81
2022/03/17 07:48:20;;;;;;;16.35;2.45;;;8.20;99.90;;;;;;5016447;28;20053;-81
2022/03/17 07:50:46;;;;;;;11.98;1.92;;;8.20;99.90;;;;;;5015983;28;20049;-82
2022/03/17 07:53:11;;;;;;;12.75;1.70;;;8.30;99.90;;;;;;5015988;28;20501;-82
2022/03/17 07:55:37;;;;;;;15.88;2.30;;;8.30;99.90;;;;;;5015808;28;20049;-82
2022/03/17 07:58:03;;;;;;;15.38;2.53;;;8.30;99.90;;;;;;5015986;28;20128;-82
2022/03/17 08:00:28;;;;;;;14.95;2.13;;;8.30;99.90;;;;;;4999027;28;20081;-82
2022/03/17 08:02:54;;;;;;;10.90;2.00;;;8.30;99.90;;;;;;5033355;28;20094;-82
2022/03/17 08:05:20;;;;;;;20.02;2.67;;;8.30;99.90;;;;;;5015719;28;20127;-82
2022/03/17 08:07:46;;;;;;;11.52;1.83;;;8.40;99.90;;;;;;5032973;28;20045;-82
2022/03/17 08:10:13;;;;;;;15.02;1.88;;;8.30;99.90;;;;;;5033298;28;20051;-81
2022/03/17 08:12:39;;;;;;;15.07;1.98;;;8.30;99.90;;;;;;5032713;28;20410;-83
2022/03/17 08:15:07;;;;;;;11.98;2.03;;;8.30;99.90;;;;;;5033187;28;20046;-82
2022/03/17 08:17:33;;;;;;;12.50;1.98;;;8.30;99.90;;;;;;5032769;28;20445;-84
2022/03/17 08:19:59;;;;;;;16.75;2.75;;;8.30;99.90;;;;;;5032494;28;20041;-81
2022/03/17 08:22:25;;;;;;;14.02;2.42;;;8.20;99.90;;;;;;5033010;28;20052;-80
2022/03/17 08:24:51;;;;;;;15.57;2.40;;;8.40;99.90;;;;;;5033051;28;20383;-80
2022/03/17 08:27:17;;;;;;;15.65;2.67;;;8.40;99.90;;;;;;4999046;28;20060;-81
2022/03/17 08:29:43;;;;;;;17.80;2.78;;;8.40;99.90;;;;;;5032534;28;20080;-81
2022/03/17 08:32:08;;;;;;;14.55;2.55;;;8.40;99.90;;;;;;5015529;28;20409;-81
2022/03/17 08:34:35;;;;;;;19.30;2.40;;;8.40;99.90;;;;;;5032543;28;20045;-80
2022/03/17 08:37:00;;;;;;;12.65;2.20;;;8.40;99.90;;;;;;5033173;28;20061;-81
2022/03/17 08:39:26;;;;;;;12.90;2.28;;;8.40;99.90;;;;;;5014932;28;20046;-80
2022/03/17 08:41:52;;;;;;;10.38;2.13;;;8.40;99.90;;;;;;5014351;28;20128;-79
2022/03/17 08:44:19;;;;;;;13.80;2.10;;;8.40;99.90;;;;;;5016361;28;20100;-79
2022/03/17 08:49:29;;;;;;;15.82;2.50;;;8.30;99.90;;;;;;5037777;28;20068;-78
2022/03/17 08:51:56;;;;;;;13.65;2.25;;;8.30;99.90;;;;;;5048811;28;20037;-76
2022/03/17 08:54:23;;;;;;;17.23;2.58;;;8.30;99.90;;;;;;5000562;28;20079;-80
2022/03/17 08:57:03;;;;;;;17.10;2.72;;;8.30;99.90;;;;;;5032262;28;20120;-81
2022/03/17 08:59:33;;;;;;;13.63;2.17;;;8.40;99.90;;;;;;5015228;28;20124;-80
2022/03/17 09:02:07;;;;;;;13.52;2.30;;;8.40;99.90;;;;;;5015026;28;20041;-80
2022/03/17 09:04:33;;;;;;;18.10;2.85;;;8.50;99.90;;;;;;4998623;28;20062;-81
2022/03/17 09:06:59;;;;;;;15.20;2.60;;;8.60;99.90;;;;;;5015103;28;20050;-81
2022/03/17 09:09:33;;;;;;;12.93;2.15;;;8.70;99.90;;;;;;5014986;28;20048;-79
2022/03/17 09:11:59;;;;;;;14.07;1.98;;;8.70;99.90;;;;;;5015113;28;20045;-80
2022/03/17 09:14:25;;;;;;;12.50;2.15;;;8.70;99.90;;;;;;5014955;28;20049;-81
2022/03/17 09:16:51;;;;;;;13.88;2.40;;;8.60;99.90;;;;;;5014560;28;20056;-81
2022/03/17 09:19:19;;;;;;;13.70;2.28;;;8.50;99.90;;;;;;5032523;28;20049;-80
2022/03/17 09:21:45;;;;;;;14.40;2.70;;;8.60;99.90;;;;;;5032082;28;20151;-80
2022/03/17 09:24:11;;;;;;;13.82;2.90;;;8.40;99.90;;;;;;5032423;28;20049;-80
2022/03/17 09:26:37;;;;;;;14.70;2.20;;;8.50;99.90;;;;;;5014572;28;20063;-81
2022/03/17 09:29:03;;;;;;;15.00;2.60;;;8.50;99.90;;;;;;5014799;28;20056;-81
2022/03/17 09:31:29;;;;;;;15.00;2.47;;;8.60;99.90;;;;;;5016101;28;20140;-80
2022/03/17 09:33:55;;;;;;;10.25;1.90;;;8.60;99.90;;;;;;5035589;28;20088;-81
2022/03/17 09:36:21;;;;;;;10.82;2.60;;;8.70;99.90;;;;;;5018674;28;20049;-80
2022/03/17 09:39:39;;;;;;;13.90;2.20;;;8.90;99.90;;;;;;5035529;28;20079;-79
2022/03/17 09:41:33;;;;;;;13.60;2.38;;;9.00;99.90;;;;;;5035956;28;20060;-80
2022/03/17 09:44:00;;;;;;;11.63;1.98;;;9.20;99.90;;;;;;5035007;28;20115;-80
2022/03/17 09:46:27;;;;;;;12.02;2.25;;;9.30;99.90;;;;;;5002169;28;20088;-80
2022/03/17 09:48:55;;;;;;;17.55;2.35;;;9.40;99.90;;;;;;5017836;28;20096;-81
2022/03/17 09:51:24;;;;;;;11.60;2.00;;;9.50;99.90;;;;;;5018702;28;20402;-80
2022/03/17 09:53:53;;;;;;;9.32;1.73;;;9.60;99.90;;;;;;5035427;28;20049;-80
2022/03/17 09:56:23;;;;;;;9.82;2.00;;;9.60;99.90;;;;;;5035733;28;20496;-81
2022/03/17 09:58:52;;;;;;;10.43;1.77;;;9.70;99.90;;;;;;5035728;28;20095;-81
2022/03/17 10:01:17;;;;;;;10.23;1.90;;;9.80;99.90;;;;;;5001570;28;20052;-80
2022/03/17 10:03:43;;;;;;;12.60;1.98;;;9.70;99.90;;;;;;5017747;28;20049;-80
2022/03/17 10:06:10;;;;;;;13.93;1.95;;;9.70;99.90;;;;;;5001599;28;20045;-80
2022/03/17 10:08:38;;;;;;;13.00;2.05;;;9.80;99.90;;;;;;5018116;28;20053;-78
2022/03/17 10:11:03;;;;;;;16.23;2.63;;;9.80;99.90;;;;;;5035164;28;20049;-80
2022/03/17 10:13:29;;;;;;;10.60;2.15;;;9.70;99.90;;;;;;5017838;28;20057;-79
2022/03/17 10:16:17;;;;;;;10.23;1.70;;;9.60;99.90;;;;;;5035078;28;20095;-79
2022/03/17 10:18:45;;;;;;;10.80;1.92;;;9.70;99.90;;;;;;5035190;28;20120;-80
2022/03/17 10:21:24;;;;;;;10.38;1.77;;;9.70;99.90;;;;;;5002237;28;20049;-80
2022/03/17 10:24:04;;;;;;;11.50;2.20;;;9.80;99.90;;;;;;5018768;28;20045;-81
2022/03/17 10:26:42;;;;;;;12.63;2.45;;;9.90;99.90;;;;;;5029285;28;20049;-75
2022/03/17 10:29:17;;;;;;;10.85;1.92;;;9.90;99.90;;;;;;5053687;28;20097;-78
2022/03/17 10:32:02;;;;;;;13.07;2.28;;;10.00;99.90;;;;;;5050445;28;20052;-82
2022/03/17 10:34:32;;;;;;;11.00;1.85;;;10.10;99.90;;;;;;5038482;28;20052;-80
2022/03/17 10:37:07;;;;;;;11.15;1.85;;;10.10;99.90;;;;;;5034728;28;20053;-80
2022/03/17 10:39:42;;;;;;;11.25;2.17;;;10.20;99.90;;;;;;5035152;28;20045;-80
2022/03/17 10:42:17;;;;;;;14.80;2.50;;;10.30;99.90;;;;;;5000409;28;20409;-80
2022/03/17 10:44:51;;;;;;;9.38;1.88;;;10.30;99.90;;;;;;5035042;28;20107;-80
2022/03/17 10:47:26;;;;;;;13.75;2.20;;;10.30;99.90;;;;;;5035014;28;20394;-80
2022/03/17 10:50:04;;;;;;;13.43;2.38;;;10.30;99.90;;;;;;5034582;28;20060;-80
2022/03/17 10:52:51;;;;;;;14.45;3.00;;;10.40;99.90;;;;;;5035042;28;20138;-80
2022/03/17 10:55:31;;;;;;;10.38;2.05;;;10.40;99.90;;;;;;5002344;28;20053;-80
2022/03/17 10:58:17;;;;;;;11.25;2.33;;;10.50;99.90;;;;;;5016760;28;20179;-80
2022/03/17 11:00:55;;;;;;;9.60;2.17;;;10.60;99.90;;;;;;5016994;28;20045;-80
2022/03/17 11:03:21;;;;;;;11.63;2.38;;;10.80;99.90;;;;;;5017311;28;20128;-80
2022/03/17 11:05:51;;;;;;;11.32;2.72;;;10.80;99.90;;;;;;5016827;28;20045;-82
2022/03/17 11:08:20;;;;;;;9.45;2.17;;;10.70;99.90;;;;;;5001009;28;20057;-80
2022/03/17 11:10:46;;;;;;;11.63;2.35;;;10.70;99.90;;;;;;5016983;28;20041;-80
2022/03/17 11:13:12;;;;;;;13.85;2.38;;;10.80;99.90;;;;;;5034012;28;20429;-80
2022/03/17 11:15:41;;;;;;;11.25;2.08;;;10.90;99.90;;;;;;5000755;28;20045;-80
2022/03/17 11:18:20;;;;;;;14.30;2.22;;;11.00;99.40;;;;;;5000157;28;20076;-80
2022/03/17 11:20:45;;;;;;;13.93;2.30;;;11.00;98.20;;;;;;5016595;28;20099;-80
2022/03/17 11:23:19;;;;;;;10.30;2.20;;;10.80;98.10;;;;;;5016212;28;20514;-81
2022/03/17 11:25:53;;;;;;;13.43;2.42;;;10.70;97.50;;;;;;5016616;28;20041;-80
2022/03/17 11:28:32;;;;;;;8.73;2.00;;;10.70;98.20;;;;;;5034196;28;20106;-81
2022/03/17 11:31:02;;;;;;;9.15;1.90;;;10.70;98.70;;;;;;5016394;28;20099;-80
2022/03/17 11:33:31;;;;;;;11.15;2.38;;;10.70;98.80;;;;;;5016413;28;20049;-79
2022/03/17 11:36:07;;;;;;;10.35;2.40;;;10.70;99.50;;;;;;5033479;28;20076;-80
2022/03/17 11:38:32;;;;;;;7.70;2.17;;;10.80;99.00;;;;;;5033793;28;20084;-80
2022/03/17 11:41:08;;;;;;;10.27;2.10;;;10.80;98.90;;;;;;5033330;28;20077;-81
2022/03/17 11:43:46;;;;;;;13.52;2.47;;;10.90;96.80;;;;;;5016840;28;20066;-81
2022/03/17 11:46:11;;;;;;;10.77;2.42;;;11.00;97.30;;;;;;5033528;28;20065;-81
2022/03/17 11:48:37;;;;;;;11.30;2.20;;;10.90;96.90;;;;;;5033321;28;20099;-80
2022/03/17 11:51:04;;;;;;;11.13;2.38;;;11.00;97.20;;;;;;5016159;28;20052;-81
2022/03/17 11:53:39;;;;;;;10.68;1.83;;;11.10;97.70;;;;;;5033775;28;20045;-80
2022/03/17 11:56:06;;;;;;;9.20;2.22;;;11.30;96.70;;;;;;5033532;28;20175;-80
2022/03/17 11:58:40;;;;;;;7.88;1.83;;;11.30;96.10;;;;;;5033705;28;20060;-80
2022/03/17 12:01:27;;;;;;;11.80;2.35;;;11.40;96.20;;;;;;5015938;28;20060;-80
2022/03/17 12:04:03;;;;;;;10.57;2.53;;;11.60;97.10;;;;;;5016062;28;20050;-80
2022/03/17 12:06:30;;;;;;;7.75;1.80;;;11.70;97.00;;;;;;5016352;28;20060;-80
2022/03/17 12:09:02;;;;;;;12.05;2.33;;;11.80;95.90;;;;;;5015514;28;20131;-81
2022/03/17 12:11:36;;;;;;;10.15;2.30;;;11.90;95.40;;;;;;5033456;28;20041;-80
2022/03/17 12:14:13;;;;;;;10.65;2.35;;;11.90;95.20;;;;;;5016176;28;20076;-81
2022/03/17 12:16:58;;;;;;;10.68;2.15;;;12.00;94.00;;;;;;5033991;28;20106;-80
2022/03/17 12:19:37;;;;;;;9.80;2.10;;;12.00;93.40;;;;;;5016429;28;20099;-79
2022/03/17 12:22:07;;;;;;;9.65;1.95;;;12.00;92.10;;;;;;5052956;28;20037;-76
2022/03/17 12:24:36;;;;;;;8.18;1.70;;;12.00;93.40;;;;;;5054616;28;20049;-77
2022/03/17 12:27:10;;;;;;;8.80;2.05;;;12.00;93.60;;;;;;5035665;28;20058;-77
2022/03/17 12:29:36;;;;;;;12.30;2.58;;;12.10;93.30;;;;;;5053559;28;20101;-77
2022/03/17 12:32:06;;;;;;;9.63;2.10;;;12.20;93.80;;;;;;5042852;28;20482;-79
2022/03/17 12:34:33;;;;;;;8.50;2.40;;;12.10;92.40;;;;;;5003156;28;20088;-80
2022/03/17 12:36:59;;;;;;;11.15;2.10;;;12.00;92.30;;;;;;5001252;28;20056;-81
2022/03/17 12:39:29;;;;;;;10.38;2.42;;;12.10;92.90;;;;;;5033176;28;20075;-80
2022/03/17 12:41:56;;;;;;;12.77;1.90;;;12.10;93.30;;;;;;5033529;28;20045;-80
2022/03/17 12:44:24;;;;;;;12.07;2.15;;;12.20;92.60;;;;;;5032629;28;20458;-80
2022/03/17 12:46:51;;;;;;;11.20;2.00;;;12.10;91.90;;;;;;5015989;28;20045;-80
2022/03/17 12:49:19;;;;;;;11.00;1.90;;;12.00;91.50;;;;;;5015424;28;20049;-80
2022/03/17 12:51:45;;;;;;;12.45;2.30;;;12.00;91.80;;;;;;5015477;28;20509;-80
2022/03/17 12:54:13;;;;;;;8.48;1.70;;;11.90;91.40;;;;;;5032843;28;20107;-81